sensor_id;sensor_type;location;lat;lon;timestamp;temperature;humidity
9041;DHT22;4555;49.918;7.012;2022-10-17T00:00:43;13.20;99.90
9041;DHT22;4555;49.918;7.012;2022-10-17T00:03:09;13.20;99.90
9041;DHT22;4555;49.918;7.012;2022-10-17T00:05:39;15.50;99.90
9041;DHT22;4555;49.918;7.012;2022-10-17T00:08:05;12.90;99.90
9041;DHT22;4555;49.918;7.012;2022-10-17T00:10:31;12.80;99.90
9041;DHT22;4555;49.918;7.012;2022-10-17T00:12:56;12.70;99.90
9041;DHT22;4555;49.918;7.012;2022-10-17T00:15:22;15.30;99.90
9041;DHT22;4555;49.918;7.012;2022-10-17T00:17:48;12.50;99.90
9041;DHT22;4555;49.918;7.012;2022-10-17T00:20:15;12.40;99.90
9041;DHT22;4555;49.918;7.012;2022-10-17T00:22:40;12.40;99.90
9041;DHT22;4555;49.918;7.012;2022-10-17T00:25:06;12.40;99.90
9041;DHT22;4555;49.918;7.012;2022-10-17T00:27:37;12.50;99.90
9041;DHT22;4555;49.918;7.012;2022-10-17T00:30:05;14.90;99.90
9041;DHT22;4555;49.918;7.012;2022-10-17T00:32:31;12.60;99.90
9041;DHT22;4555;49.918;7.012;2022-10-17T00:34:57;12.60;99.90
9041;DHT22;4555;49.918;7.012;2022-10-17T00:37:23;12.70;99.90
9041;DHT22;4555;49.918;7.012;2022-10-17T00:39:49;12.80;99.90
9041;DHT22;4555;49.918;7.012;2022-10-17T00:42:16;12.80;99.90
9041;DHT22;4555;49.918;7.012;2022-10-17T00:47:14;12.80;99.90
9041;DHT22;4555;49.918;7.012;2022-10-17T00:49:40;12.70;99.90
9041;DHT22;4555;49.918;7.012;2022-10-17T00:52:22;15.00;99.90
9041;DHT22;4555;49.918;7.012;2022-10-17T00:54:57;12.60;99.90
9041;DHT22;4555;49.918;7.012;2022-10-17T00:57:24;12.60;99.90
9041;DHT22;4555;49.918;7.012;2022-10-17T00:59:52;13.20;99.90
9041;DHT22;4555;49.918;7.012;2022-10-17T01:02:21;12.30;99.90
9041;DHT22;4555;49.918;7.012;2022-10-17T01:04:49;12.30;99.90
9041;DHT22;4555;49.918;7.012;2022-10-17T01:07:15;12.30;99.90
9041;DHT22;4555;49.918;7.012;2022-10-17T01:09:42;12.30;99.90
9041;DHT22;4555;49.918;7.012;2022-10-17T01:12:19;12.30;99.90
9041;DHT22;4555;49.918;7.012;2022-10-17T01:20:45;12.30;99.90
9041;DHT22;4555;49.918;7.012;2022-10-17T01:34:24;12.30;99.90
9041;DHT22;4555;49.918;7.012;2022-10-17T01:37:03;12.40;99.90
9041;DHT22;4555;49.918;7.012;2022-10-17T01:39:52;12.30;99.90
9041;DHT22;4555;49.918;7.012;2022-10-17T01:42:35;12.30;99.90
9041;DHT22;4555;49.918;7.012;2022-10-17T01:45:26;12.20;99.90
9041;DHT22;4555;49.918;7.012;2022-10-17T01:47:55;12.20;99.90
9041;DHT22;4555;49.918;7.012;2022-10-17T01:50:27;12.10;99.90
9041;DHT22;4555;49.918;7.012;2022-10-17T01:53:02;12.10;99.90
9041;DHT22;4555;49.918;7.012;2022-10-17T01:55:38;12.20;99.90
9041;DHT22;4555;49.918;7.012;2022-10-17T01:58:11;12.10;99.90
9041;DHT22;4555;49.918;7.012;2022-10-17T02:00:40;12.00;99.90
9041;DHT22;4555;49.918;7.012;2022-10-17T02:03:10;12.00;99.90
9041;DHT22;4555;49.918;7.012;2022-10-17T02:05:39;11.90;99.90
9041;DHT22;4555;49.918;7.012;2022-10-17T02:08:06;12.00;99.90
9041;DHT22;4555;49.918;7.012;2022-10-17T02:10:56;12.10;99.90
9041;DHT22;4555;49.918;7.012;2022-10-17T02:13:38;11.80;99.90
9041;DHT22;4555;49.918;7.012;2022-10-17T02:24:29;11.70;99.90
9041;DHT22;4555;49.918;7.012;2022-10-17T02:30:38;11.60;99.90
9041;DHT22;4555;49.918;7.012;2022-10-17T02:33:15;11.60;99.90
9041;DHT22;4555;49.918;7.012;2022-10-17T02:35:47;11.60;99.90
9041;DHT22;4555;49.918;7.012;2022-10-17T02:38:15;11.80;99.90
9041;DHT22;4555;49.918;7.012;2022-10-17T02:40:43;11.50;99.90
9041;DHT22;4555;49.918;7.012;2022-10-17T02:43:11;11.60;99.90
9041;DHT22;4555;49.918;7.012;2022-10-17T02:45:37;11.50;99.90
9041;DHT22;4555;49.918;7.012;2022-10-17T02:48:15;11.50;99.90
9041;DHT22;4555;49.918;7.012;2022-10-17T02:50:48;11.90;99.90
9041;DHT22;4555;49.918;7.012;2022-10-17T02:53:24;11.50;99.90
9041;DHT22;4555;49.918;7.012;2022-10-17T02:55:57;11.60;99.90
9041;DHT22;4555;49.918;7.012;2022-10-17T02:58:27;11.60;99.90
9041;DHT22;4555;49.918;7.012;2022-10-17T03:00:54;12.50;99.90
9041;DHT22;4555;49.918;7.012;2022-10-17T03:03:29;11.40;99.90
9041;DHT22;4555;49.918;7.012;2022-10-17T03:05:59;11.40;99.90
9041;DHT22;4555;49.918;7.012;2022-10-17T03:08:25;11.40;99.90
9041;DHT22;4555;49.918;7.012;2022-10-17T03:10:50;11.30;99.90
9041;DHT22;4555;49.918;7.012;2022-10-17T03:13:17;11.40;99.90
9041;DHT22;4555;49.918;7.012;2022-10-17T03:15:44;11.50;99.90
9041;DHT22;4555;49.918;7.012;2022-10-17T03:18:09;11.50;99.90
9041;DHT22;4555;49.918;7.012;2022-10-17T03:20:35;11.60;99.90
9041;DHT22;4555;49.918;7.012;2022-10-17T03:23:01;11.70;99.90
9041;DHT22;4555;49.918;7.012;2022-10-17T03:25:27;11.70;99.90
9041;DHT22;4555;49.918;7.012;2022-10-17T03:27:53;13.00;99.90
9041;DHT22;4555;49.918;7.012;2022-10-17T03:30:19;11.60;99.90
9041;DHT22;4555;49.918;7.012;2022-10-17T03:32:45;11.50;99.90
9041;DHT22;4555;49.918;7.012;2022-10-17T03:35:11;11.40;99.90
9041;DHT22;4555;49.918;7.012;2022-10-17T03:37:38;11.30;99.90
9041;DHT22;4555;49.918;7.012;2022-10-17T03:40:04;11.30;99.90
9041;DHT22;4555;49.918;7.012;2022-10-17T03:42:31;11.30;99.90
9041;DHT22;4555;49.918;7.012;2022-10-17T03:44:56;11.20;99.90
9041;DHT22;4555;49.918;7.012;2022-10-17T03:47:22;11.20;99.90
9041;DHT22;4555;49.918;7.012;2022-10-17T03:49:48;11.10;99.90
9041;DHT22;4555;49.918;7.012;2022-10-17T03:52:14;11.10;99.90
9041;DHT22;4555;49.918;7.012;2022-10-17T03:54:40;11.10;99.90
9041;DHT22;4555;49.918;7.012;2022-10-17T03:57:06;11.10;99.90
9041;DHT22;4555;49.918;7.012;2022-10-17T03:59:32;11.10;99.90
9041;DHT22;4555;49.918;7.012;2022-10-17T04:02:03;11.10;99.90
9041;DHT22;4555;49.918;7.012;2022-10-17T04:04:28;11.20;99.90
9041;DHT22;4555;49.918;7.012;2022-10-17T04:06:54;11.30;99.90
9041;DHT22;4555;49.918;7.012;2022-10-17T04:09:20;13.60;99.90
9041;DHT22;4555;49.918;7.012;2022-10-17T04:11:55;11.30;99.90
9041;DHT22;4555;49.918;7.012;2022-10-17T04:14:21;11.30;99.90
9041;DHT22;4555;49.918;7.012;2022-10-17T04:16:47;11.40;99.90
9041;DHT22;4555;49.918;7.012;2022-10-17T04:19:17;12.30;99.90
9041;DHT22;4555;49.918;7.012;2022-10-17T04:21:45;11.30;99.90
9041;DHT22;4555;49.918;7.012;2022-10-17T04:24:12;11.20;99.90
9041;DHT22;4555;49.918;7.012;2022-10-17T04:26:40;11.00;99.90
9041;DHT22;4555;49.918;7.012;2022-10-17T04:29:06;12.30;99.90
9041;DHT22;4555;49.918;7.012;2022-10-17T04:31:32;11.10;99.90
9041;DHT22;4555;49.918;7.012;2022-10-17T04:34:07;11.10;99.90
9041;DHT22;4555;49.918;7.012;2022-10-17T04:36:33;11.10;99.90
9041;DHT22;4555;49.918;7.012;2022-10-17T04:38:59;11.10;99.90
9041;DHT22;4555;49.918;7.012;2022-10-17T04:41:29;11.10;99.90
9041;DHT22;4555;49.918;7.012;2022-10-17T04:43:54;11.10;99.90
9041;DHT22;4555;49.918;7.012;2022-10-17T04:46:20;11.20;99.90
9041;DHT22;4555;49.918;7.012;2022-10-17T04:48:47;11.10;99.90
9041;DHT22;4555;49.918;7.012;2022-10-17T04:51:16;11.20;99.90
9041;DHT22;4555;49.918;7.012;2022-10-17T04:54:00;13.10;99.90
9041;DHT22;4555;49.918;7.012;2022-10-17T04:56:26;11.30;99.90
9041;DHT22;4555;49.918;7.012;2022-10-17T04:58:52;11.30;99.90
9041;DHT22;4555;49.918;7.012;2022-10-17T05:01:21;11.40;99.90
9041;DHT22;4555;49.918;7.012;2022-10-17T05:03:52;11.40;99.90
9041;DHT22;4555;49.918;7.012;2022-10-17T05:06:23;11.40;99.90
9041;DHT22;4555;49.918;7.012;2022-10-17T05:09:07;11.40;99.90
9041;DHT22;4555;49.918;7.012;2022-10-17T05:11:33;11.40;99.90
9041;DHT22;4555;49.918;7.012;2022-10-17T05:14:01;11.30;99.90
9041;DHT22;4555;49.918;7.012;2022-10-17T05:16:30;11.20;99.90
9041;DHT22;4555;49.918;7.012;2022-10-17T05:18:57;11.10;99.90
9041;DHT22;4555;49.918;7.012;2022-10-17T05:21:27;11.10;99.90
9041;DHT22;4555;49.918;7.012;2022-10-17T05:23:54;10.80;99.90
9041;DHT22;4555;49.918;7.012;2022-10-17T05:26:21;10.70;99.90
9041;DHT22;4555;49.918;7.012;2022-10-17T05:28:48;10.60;99.90
9041;DHT22;4555;49.918;7.012;2022-10-17T05:31:14;10.50;99.90
9041;DHT22;4555;49.918;7.012;2022-10-17T05:33:41;10.50;99.90
9041;DHT22;4555;49.918;7.012;2022-10-17T05:36:07;10.50;99.90
9041;DHT22;4555;49.918;7.012;2022-10-17T05:38:33;11.90;99.90
9041;DHT22;4555;49.918;7.012;2022-10-17T05:41:02;10.50;99.90
9041;DHT22;4555;49.918;7.012;2022-10-17T05:43:28;10.60;99.90
9041;DHT22;4555;49.918;7.012;2022-10-17T05:45:55;10.60;99.90
9041;DHT22;4555;49.918;7.012;2022-10-17T05:48:22;10.70;99.90
9041;DHT22;4555;49.918;7.012;2022-10-17T05:50:49;11.40;99.90
9041;DHT22;4555;49.918;7.012;2022-10-17T05:53:16;10.70;99.90
9041;DHT22;4555;49.918;7.012;2022-10-17T05:55:59;10.70;99.90
9041;DHT22;4555;49.918;7.012;2022-10-17T05:58:25;10.80;99.90
9041;DHT22;4555;49.918;7.012;2022-10-17T06:00:59;10.80;99.90
9041;DHT22;4555;49.918;7.012;2022-10-17T06:03:26;10.80;99.90
9041;DHT22;4555;49.918;7.012;2022-10-17T06:05:53;12.00;99.90
9041;DHT22;4555;49.918;7.012;2022-10-17T06:08:19;10.70;99.90
9041;DHT22;4555;49.918;7.012;2022-10-17T06:10:47;11.70;99.90
9041;DHT22;4555;49.918;7.012;2022-10-17T06:13:14;10.60;99.90
9041;DHT22;4555;49.918;7.012;2022-10-17T06:15:40;10.50;99.90
9041;DHT22;4555;49.918;7.012;2022-10-17T06:18:07;10.60;99.90
9041;DHT22;4555;49.918;7.012;2022-10-17T06:20:32;10.50;99.90
9041;DHT22;4555;49.918;7.012;2022-10-17T06:22:58;10.40;99.90
9041;DHT22;4555;49.918;7.012;2022-10-17T06:25:50;10.30;99.90
9041;DHT22;4555;49.918;7.012;2022-10-17T06:28:16;10.30;99.90
9041;DHT22;4555;49.918;7.012;2022-10-17T06:30:41;10.50;99.90
9041;DHT22;4555;49.918;7.012;2022-10-17T06:33:07;10.60;99.90
9041;DHT22;4555;49.918;7.012;2022-10-17T06:35:33;10.70;99.90
9041;DHT22;4555;49.918;7.012;2022-10-17T06:37:59;10.80;99.90
9041;DHT22;4555;49.918;7.012;2022-10-17T06:40:25;11.00;99.90
9041;DHT22;4555;49.918;7.012;2022-10-17T06:42:50;11.00;99.90
9041;DHT22;4555;49.918;7.012;2022-10-17T06:45:24;11.10;99.90
9041;DHT22;4555;49.918;7.012;2022-10-17T06:48:12;11.00;99.90
9041;DHT22;4555;49.918;7.012;2022-10-17T06:50:42;11.10;99.90
9041;DHT22;4555;49.918;7.012;2022-10-17T06:53:20;11.20;99.90
9041;DHT22;4555;49.918;7.012;2022-10-17T06:55:50;11.20;99.90
9041;DHT22;4555;49.918;7.012;2022-10-17T06:58:41;12.50;99.90
9041;DHT22;4555;49.918;7.012;2022-10-17T07:01:17;11.40;99.90
9041;DHT22;4555;49.918;7.012;2022-10-17T07:03:47;11.40;99.90
9041;DHT22;4555;49.918;7.012;2022-10-17T07:06:13;11.40;99.90
9041;DHT22;4555;49.918;7.012;2022-10-17T07:08:42;11.30;99.90
9041;DHT22;4555;49.918;7.012;2022-10-17T07:11:14;11.40;99.90
9041;DHT22;4555;49.918;7.012;2022-10-17T07:13:41;11.40;99.90
9041;DHT22;4555;49.918;7.012;2022-10-17T07:16:07;11.30;99.90
9041;DHT22;4555;49.918;7.012;2022-10-17T07:18:34;11.40;99.90
9041;DHT22;4555;49.918;7.012;2022-10-17T07:21:00;11.30;99.90
9041;DHT22;4555;49.918;7.012;2022-10-17T07:23:26;11.50;99.90
9041;DHT22;4555;49.918;7.012;2022-10-17T07:25:52;11.50;99.90
9041;DHT22;4555;49.918;7.012;2022-10-17T07:28:18;11.70;99.90
9041;DHT22;4555;49.918;7.012;2022-10-17T07:30:44;11.80;99.90
9041;DHT22;4555;49.918;7.012;2022-10-17T07:33:11;11.90;99.90
9041;DHT22;4555;49.918;7.012;2022-10-17T07:35:38;12.10;99.90
9041;DHT22;4555;49.918;7.012;2022-10-17T07:38:07;12.10;99.90
9041;DHT22;4555;49.918;7.012;2022-10-17T07:40:33;12.10;99.90
9041;DHT22;4555;49.918;7.012;2022-10-17T07:42:59;12.30;99.90
9041;DHT22;4555;49.918;7.012;2022-10-17T07:45:25;12.40;99.90
9041;DHT22;4555;49.918;7.012;2022-10-17T07:47:56;12.70;99.90
9041;DHT22;4555;49.918;7.012;2022-10-17T07:50:22;12.90;99.90
9041;DHT22;4555;49.918;7.012;2022-10-17T07:52:48;13.10;99.90
9041;DHT22;4555;49.918;7.012;2022-10-17T07:55:14;14.80;99.90
9041;DHT22;4555;49.918;7.012;2022-10-17T07:57:39;13.60;99.90
9041;DHT22;4555;49.918;7.012;2022-10-17T08:00:07;16.80;99.90
9041;DHT22;4555;49.918;7.012;2022-10-17T08:02:38;13.70;99.90
9041;DHT22;4555;49.918;7.012;2022-10-17T08:05:04;16.10;99.90
9041;DHT22;4555;49.918;7.012;2022-10-17T08:07:29;14.10;99.90
9041;DHT22;4555;49.918;7.012;2022-10-17T08:09:55;14.60;99.90
9041;DHT22;4555;49.918;7.012;2022-10-17T08:12:21;18.00;99.90
9041;DHT22;4555;49.918;7.012;2022-10-17T08:14:46;18.40;99.90
9041;DHT22;4555;49.918;7.012;2022-10-17T08:17:12;16.20;99.90
9041;DHT22;4555;49.918;7.012;2022-10-17T08:19:41;18.00;99.90
9041;DHT22;4555;49.918;7.012;2022-10-17T08:22:07;17.10;99.90
9041;DHT22;4555;49.918;7.012;2022-10-17T08:24:32;18.60;99.90
9041;DHT22;4555;49.918;7.012;2022-10-17T08:26:58;18.30;99.90
9041;DHT22;4555;49.918;7.012;2022-10-17T08:29:25;15.30;99.90
9041;DHT22;4555;49.918;7.012;2022-10-17T08:31:51;18.00;99.90
9041;DHT22;4555;49.918;7.012;2022-10-17T08:34:17;17.70;99.90
9041;DHT22;4555;49.918;7.012;2022-10-17T08:36:43;19.40;99.90
9041;DHT22;4555;49.918;7.012;2022-10-17T08:39:08;19.30;99.90
9041;DHT22;4555;49.918;7.012;2022-10-17T08:44:47;16.50;99.90
9041;DHT22;4555;49.918;7.012;2022-10-17T08:47:22;16.70;99.90
9041;DHT22;4555;49.918;7.012;2022-10-17T08:49:56;17.20;99.90
9041;DHT22;4555;49.918;7.012;2022-10-17T08:52:39;17.40;99.90
9041;DHT22;4555;49.918;7.012;2022-10-17T08:55:28;17.70;99.90
9041;DHT22;4555;49.918;7.012;2022-10-17T08:57:55;17.70;99.90
9041;DHT22;4555;49.918;7.012;2022-10-17T09:00:21;18.00;99.90
9041;DHT22;4555;49.918;7.012;2022-10-17T09:10:53;18.50;99.90
9041;DHT22;4555;49.918;7.012;2022-10-17T09:13:42;18.80;99.90
9041;DHT22;4555;49.918;7.012;2022-10-17T09:21:27;19.60;51.50
9041;DHT22;4555;49.918;7.012;2022-10-17T09:24:00;21.50;8.50
9041;DHT22;4555;49.918;7.012;2022-10-17T09:26:27;20.30;91.80
9041;DHT22;4555;49.918;7.012;2022-10-17T09:28:58;20.40;1.00
9041;DHT22;4555;49.918;7.012;2022-10-17T09:31:29;20.50;1.00
9041;DHT22;4555;49.918;7.012;2022-10-17T09:34:00;20.70;1.00
9041;DHT22;4555;49.918;7.012;2022-10-17T09:36:32;22.50;1.00
9041;DHT22;4555;49.918;7.012;2022-10-17T09:39:04;22.80;1.00
9041;DHT22;4555;49.918;7.012;2022-10-17T09:47:10;21.90;1.00
9041;DHT22;4555;49.918;7.012;2022-10-17T09:49:43;22.00;1.00
9041;DHT22;4555;49.918;7.012;2022-10-17T09:52:25;22.40;99.90
9041;DHT22;4555;49.918;7.012;2022-10-17T09:57:20;22.60;30.20
9041;DHT22;4555;49.918;7.012;2022-10-17T09:59:59;23.00;1.00
9041;DHT22;4555;49.918;7.012;2022-10-17T10:02:27;23.40;99.90
9041;DHT22;4555;49.918;7.012;2022-10-17T10:05:14;23.70;94.20
9041;DHT22;4555;49.918;7.012;2022-10-17T10:07:58;23.40;1.00
9041;DHT22;4555;49.918;7.012;2022-10-17T10:10:27;23.40;1.00
9041;DHT22;4555;49.918;7.012;2022-10-17T10:15:38;23.70;1.00
9041;DHT22;4555;49.918;7.012;2022-10-17T10:23:31;24.10;1.00
9041;DHT22;4555;49.918;7.012;2022-10-17T10:26:26;24.10;99.90
9041;DHT22;4555;49.918;7.012;2022-10-17T10:28:56;23.90;99.90
9041;DHT22;4555;49.918;7.012;2022-10-17T10:31:32;23.70;99.90
9041;DHT22;4555;49.918;7.012;2022-10-17T10:34:02;23.50;1.00
9041;DHT22;4555;49.918;7.012;2022-10-17T10:36:43;23.40;1.00
9041;DHT22;4555;49.918;7.012;2022-10-17T10:39:23;23.00;1.00
9041;DHT22;4555;49.918;7.012;2022-10-17T10:41:50;22.90;1.00
9041;DHT22;4555;49.918;7.012;2022-10-17T10:44:16;22.70;1.00
9041;DHT22;4555;49.918;7.012;2022-10-17T10:49:29;22.60;99.90
9041;DHT22;4555;49.918;7.012;2022-10-17T10:51:57;22.70;99.90
9041;DHT22;4555;49.918;7.012;2022-10-17T10:54:27;22.90;1.00
9041;DHT22;4555;49.918;7.012;2022-10-17T10:57:01;23.20;99.90
9041;DHT22;4555;49.918;7.012;2022-10-17T10:59:54;23.50;1.00
9041;DHT22;4555;49.918;7.012;2022-10-17T11:02:32;23.70;99.90
9041;DHT22;4555;49.918;7.012;2022-10-17T11:05:04;23.80;1.00
9041;DHT22;4555;49.918;7.012;2022-10-17T11:07:44;23.80;1.00
9041;DHT22;4555;49.918;7.012;2022-10-17T11:10:34;23.70;1.00
9041;DHT22;4555;49.918;7.012;2022-10-17T11:13:16;23.70;99.90
9041;DHT22;4555;49.918;7.012;2022-10-17T11:15:47;24.00;99.90
9041;DHT22;4555;49.918;7.012;2022-10-17T11:18:23;24.20;99.90
9041;DHT22;4555;49.918;7.012;2022-10-17T11:20:55;24.00;99.90
9041;DHT22;4555;49.918;7.012;2022-10-17T11:23:42;24.00;1.00
9041;DHT22;4555;49.918;7.012;2022-10-17T11:26:22;24.00;1.00
9041;DHT22;4555;49.918;7.012;2022-10-17T11:28:52;24.30;1.00
9041;DHT22;4555;49.918;7.012;2022-10-17T11:31:19;24.20;99.90
9041;DHT22;4555;49.918;7.012;2022-10-17T11:33:53;23.80;1.00
9041;DHT22;4555;49.918;7.012;2022-10-17T11:36:24;23.50;1.00
9041;DHT22;4555;49.918;7.012;2022-10-17T11:39:04;23.50;1.00
9041;DHT22;4555;49.918;7.012;2022-10-17T11:41:49;23.40;1.00
9041;DHT22;4555;49.918;7.012;2022-10-17T11:44:30;23.60;99.90
9041;DHT22;4555;49.918;7.012;2022-10-17T11:47:22;24.00;1.00
9041;DHT22;4555;49.918;7.012;2022-10-17T11:50:10;24.30;99.90
9041;DHT22;4555;49.918;7.012;2022-10-17T11:52:47;24.40;99.90
9041;DHT22;4555;49.918;7.012;2022-10-17T11:55:25;24.40;1.00
9041;DHT22;4555;49.918;7.012;2022-10-17T12:03:43;24.70;99.90
9041;DHT22;4555;49.918;7.012;2022-10-17T12:14:46;24.30;1.00
9041;DHT22;4555;49.918;7.012;2022-10-17T12:19:47;24.20;99.90
9041;DHT22;4555;49.918;7.012;2022-10-17T12:22:21;24.40;99.90
9041;DHT22;4555;49.918;7.012;2022-10-17T12:25:01;24.50;99.90
9041;DHT22;4555;49.918;7.012;2022-10-17T12:27:34;24.50;1.00
9041;DHT22;4555;49.918;7.012;2022-10-17T12:30:05;24.70;1.00
9041;DHT22;4555;49.918;7.012;2022-10-17T12:32:31;24.80;1.00
9041;DHT22;4555;49.918;7.012;2022-10-17T12:34:57;25.10;1.00
9041;DHT22;4555;49.918;7.012;2022-10-17T12:45:59;25.60;13.30
9041;DHT22;4555;49.918;7.012;2022-10-17T12:51:14;25.40;99.90
9041;DHT22;4555;49.918;7.012;2022-10-17T12:56:37;25.40;99.90
9041;DHT22;4555;49.918;7.012;2022-10-17T13:01:44;25.00;99.90
9041;DHT22;4555;49.918;7.012;2022-10-17T13:04:10;24.70;99.90
9041;DHT22;4555;49.918;7.012;2022-10-17T13:06:42;24.70;1.00
9041;DHT22;4555;49.918;7.012;2022-10-17T13:09:30;24.70;1.00
9041;DHT22;4555;49.918;7.012;2022-10-17T13:11:59;24.60;1.00
9041;DHT22;4555;49.918;7.012;2022-10-17T13:14:25;24.60;1.00
9041;DHT22;4555;49.918;7.012;2022-10-17T13:16:55;24.40;99.90
9041;DHT22;4555;49.918;7.012;2022-10-17T13:19:24;24.20;1.00
9041;DHT22;4555;49.918;7.012;2022-10-17T13:24:21;23.90;99.90
9041;DHT22;4555;49.918;7.012;2022-10-17T13:26:47;23.90;10.40
9041;DHT22;4555;49.918;7.012;2022-10-17T13:29:14;23.90;28.10
9041;DHT22;4555;49.918;7.012;2022-10-17T13:31:42;23.80;1.00
9041;DHT22;4555;49.918;7.012;2022-10-17T13:34:20;23.80;99.90
9041;DHT22;4555;49.918;7.012;2022-10-17T13:36:48;24.50;99.90
9041;DHT22;4555;49.918;7.012;2022-10-17T13:39:18;24.00;99.90
9041;DHT22;4555;49.918;7.012;2022-10-17T13:41:45;24.50;99.90
9041;DHT22;4555;49.918;7.012;2022-10-17T13:44:20;23.90;99.90
9041;DHT22;4555;49.918;7.012;2022-10-17T13:46:47;25.80;99.90
9041;DHT22;4555;49.918;7.012;2022-10-17T13:49:30;24.60;99.90
9041;DHT22;4555;49.918;7.012;2022-10-17T13:51:57;24.00;99.90
9041;DHT22;4555;49.918;7.012;2022-10-17T13:54:40;24.20;99.90
9041;DHT22;4555;49.918;7.012;2022-10-17T13:57:25;24.50;99.90
9041;DHT22;4555;49.918;7.012;2022-10-17T13:59:54;24.40;99.90
9041;DHT22;4555;49.918;7.012;2022-10-17T14:02:23;24.40;93.70
9041;DHT22;4555;49.918;7.012;2022-10-17T14:05:00;24.10;99.90
9041;DHT22;4555;49.918;7.012;2022-10-17T14:07:34;24.70;99.90
9041;DHT22;4555;49.918;7.012;2022-10-17T14:10:01;23.90;99.90
9041;DHT22;4555;49.918;7.012;2022-10-17T14:12:31;24.00;99.90
9041;DHT22;4555;49.918;7.012;2022-10-17T14:14:57;23.70;99.90
9041;DHT22;4555;49.918;7.012;2022-10-17T14:17:25;24.30;1.00
9041;DHT22;4555;49.918;7.012;2022-10-17T14:19:54;24.40;1.00
9041;DHT22;4555;49.918;7.012;2022-10-17T14:22:27;24.90;1.00
9041;DHT22;4555;49.918;7.012;2022-10-17T14:24:52;23.30;99.90
9041;DHT22;4555;49.918;7.012;2022-10-17T14:29:57;23.40;1.00
9041;DHT22;4555;49.918;7.012;2022-10-17T14:32:30;23.50;99.90
9041;DHT22;4555;49.918;7.012;2022-10-17T14:34:59;23.60;1.00
9041;DHT22;4555;49.918;7.012;2022-10-17T14:37:44;23.90;99.90
9041;DHT22;4555;49.918;7.012;2022-10-17T14:42:40;23.70;99.90
9041;DHT22;4555;49.918;7.012;2022-10-17T14:45:10;23.60;99.90
9041;DHT22;4555;49.918;7.012;2022-10-17T14:47:36;23.60;1.00
9041;DHT22;4555;49.918;7.012;2022-10-17T14:52:37;23.60;99.90
9041;DHT22;4555;49.918;7.012;2022-10-17T14:55:22;23.60;97.90
9041;DHT22;4555;49.918;7.012;2022-10-17T14:57:48;24.00;99.90
9041;DHT22;4555;49.918;7.012;2022-10-17T15:00:18;24.10;99.90
9041;DHT22;4555;49.918;7.012;2022-10-17T15:02:46;24.20;1.00
9041;DHT22;4555;49.918;7.012;2022-10-17T15:05:13;24.30;1.00
9041;DHT22;4555;49.918;7.012;2022-10-17T15:07:39;23.90;1.00
9041;DHT22;4555;49.918;7.012;2022-10-17T15:10:05;25.90;1.00
9041;DHT22;4555;49.918;7.012;2022-10-17T15:12:31;23.90;1.00
9041;DHT22;4555;49.918;7.012;2022-10-17T15:14:57;23.70;1.00
9041;DHT22;4555;49.918;7.012;2022-10-17T15:19:50;24.40;1.00
9041;DHT22;4555;49.918;7.012;2022-10-17T15:22:16;24.50;99.90
9041;DHT22;4555;49.918;7.012;2022-10-17T15:24:43;23.40;1.00
9041;DHT22;4555;49.918;7.012;2022-10-17T15:27:37;24.20;99.90
9041;DHT22;4555;49.918;7.012;2022-10-17T15:30:03;23.30;1.00
9041;DHT22;4555;49.918;7.012;2022-10-17T15:32:28;23.10;99.90
9041;DHT22;4555;49.918;7.012;2022-10-17T15:34:54;23.30;1.00
9041;DHT22;4555;49.918;7.012;2022-10-17T15:37:22;22.80;99.90
9041;DHT22;4555;49.918;7.012;2022-10-17T15:39:50;22.70;8.70
9041;DHT22;4555;49.918;7.012;2022-10-17T15:42:17;22.90;1.00
9041;DHT22;4555;49.918;7.012;2022-10-17T15:44:43;22.40;1.00
9041;DHT22;4555;49.918;7.012;2022-10-17T15:47:23;22.30;99.90
9041;DHT22;4555;49.918;7.012;2022-10-17T15:49:49;22.20;99.90
9041;DHT22;4555;49.918;7.012;2022-10-17T15:52:15;22.30;99.90
9041;DHT22;4555;49.918;7.012;2022-10-17T15:54:41;22.50;1.00
9041;DHT22;4555;49.918;7.012;2022-10-17T15:57:16;22.30;1.00
9041;DHT22;4555;49.918;7.012;2022-10-17T15:59:42;22.60;99.90
9041;DHT22;4555;49.918;7.012;2022-10-17T16:02:12;22.20;1.00
9041;DHT22;4555;49.918;7.012;2022-10-17T16:04:38;21.90;99.90
9041;DHT22;4555;49.918;7.012;2022-10-17T16:07:04;21.80;99.90
9041;DHT22;4555;49.918;7.012;2022-10-17T16:09:30;21.50;1.00
9041;DHT22;4555;49.918;7.012;2022-10-17T16:11:56;21.50;1.00
9041;DHT22;4555;49.918;7.012;2022-10-17T16:14:21;21.40;99.90
9041;DHT22;4555;49.918;7.012;2022-10-17T16:16:47;23.10;99.90
9041;DHT22;4555;49.918;7.012;2022-10-17T16:19:12;22.50;99.90
9041;DHT22;4555;49.918;7.012;2022-10-17T16:21:39;22.10;1.00
9041;DHT22;4555;49.918;7.012;2022-10-17T16:24:05;21.30;99.90
9041;DHT22;4555;49.918;7.012;2022-10-17T16:26:33;21.00;99.90
9041;DHT22;4555;49.918;7.012;2022-10-17T16:28:59;21.50;99.90
9041;DHT22;4555;49.918;7.012;2022-10-17T16:31:33;21.70;99.90
9041;DHT22;4555;49.918;7.012;2022-10-17T16:34:00;21.20;99.90
9041;DHT22;4555;49.918;7.012;2022-10-17T16:36:26;20.90;99.90
9041;DHT22;4555;49.918;7.012;2022-10-17T16:38:52;20.90;1.00
9041;DHT22;4555;49.918;7.012;2022-10-17T16:41:28;21.10;1.00
9041;DHT22;4555;49.918;7.012;2022-10-17T16:43:56;20.70;1.00
9041;DHT22;4555;49.918;7.012;2022-10-17T16:46:23;20.50;1.00
9041;DHT22;4555;49.918;7.012;2022-10-17T16:48:49;21.20;6.10
9041;DHT22;4555;49.918;7.012;2022-10-17T16:51:16;22.70;1.00
9041;DHT22;4555;49.918;7.012;2022-10-17T16:53:44;22.50;71.80
9041;DHT22;4555;49.918;7.012;2022-10-17T16:56:16;20.70;57.60
9041;DHT22;4555;49.918;7.012;2022-10-17T16:58:43;20.10;67.50
9041;DHT22;4555;49.918;7.012;2022-10-17T17:01:14;20.10;75.90
9041;DHT22;4555;49.918;7.012;2022-10-17T17:03:41;19.80;99.90
9041;DHT22;4555;49.918;7.012;2022-10-17T17:06:11;19.80;99.90
9041;DHT22;4555;49.918;7.012;2022-10-17T17:08:37;21.50;99.90
9041;DHT22;4555;49.918;7.012;2022-10-17T17:11:10;20.30;99.90
9041;DHT22;4555;49.918;7.012;2022-10-17T17:13:37;20.50;99.90
9041;DHT22;4555;49.918;7.012;2022-10-17T17:16:05;20.80;99.90
9041;DHT22;4555;49.918;7.012;2022-10-17T17:18:31;19.50;99.90
9041;DHT22;4555;49.918;7.012;2022-10-17T17:21:01;19.20;99.90
9041;DHT22;4555;49.918;7.012;2022-10-17T17:23:31;20.90;99.90
9041;DHT22;4555;49.918;7.012;2022-10-17T17:26:10;19.30;99.90
9041;DHT22;4555;49.918;7.012;2022-10-17T17:28:36;19.20;99.90
9041;DHT22;4555;49.918;7.012;2022-10-17T17:31:06;19.10;99.90
9041;DHT22;4555;49.918;7.012;2022-10-17T17:33:32;18.80;99.90
9041;DHT22;4555;49.918;7.012;2022-10-17T17:35:59;18.70;99.90
9041;DHT22;4555;49.918;7.012;2022-10-17T17:38:28;19.90;99.90
9041;DHT22;4555;49.918;7.012;2022-10-17T17:40:54;18.60;99.90
9041;DHT22;4555;49.918;7.012;2022-10-17T17:43:20;18.60;99.90
9041;DHT22;4555;49.918;7.012;2022-10-17T17:45:46;18.40;99.90
9041;DHT22;4555;49.918;7.012;2022-10-17T17:48:12;18.40;99.90
9041;DHT22;4555;49.918;7.012;2022-10-17T17:50:39;18.30;99.90
9041;DHT22;4555;49.918;7.012;2022-10-17T17:53:06;18.20;99.90
9041;DHT22;4555;49.918;7.012;2022-10-17T17:55:33;19.70;99.90
9041;DHT22;4555;49.918;7.012;2022-10-17T18:15:03;18.20;99.90
9041;DHT22;4555;49.918;7.012;2022-10-17T18:29:44;18.00;99.90
9041;DHT22;4555;49.918;7.012;2022-10-17T18:32:14;18.00;99.90
9041;DHT22;4555;49.918;7.012;2022-10-17T18:44:24;17.70;99.90
9041;DHT22;4555;49.918;7.012;2022-10-17T18:46:50;17.70;99.90
9041;DHT22;4555;49.918;7.012;2022-10-17T18:49:18;17.70;99.90
9041;DHT22;4555;49.918;7.012;2022-10-17T18:51:45;17.70;99.90
9041;DHT22;4555;49.918;7.012;2022-10-17T18:54:16;17.90;99.90